Terminal Aerodrome Forecast
Issued by NWS

Home | Current Version | Previous Version | Graphics & Text | Print | Product List | Glossary On
Versions: 1 2 3 4 5 6 7 8 9 10 11 12 13 14 15 16 17
000
FTUS43 KBIS 241100
TAFJMS
TAF
KJMS 241134Z 2412/2512 33020G28KT P6SM -SN SCT012 BKN015 OVC022
      TEMPO 2412/2415 5SM -SN OVC012
     FM241600 33020G26KT P6SM SCT012 SCT020
     FM250000 31010KT P6SM SCT080
     FM250400 29008KT P6SM BKN035 OVC080
     FM250700 28007KT P6SM -SN BKN015 OVC025=

USA.gov is the U.S. government's official web portal to all federal, state and local government web resources and services.